Flight Track Log - Related Links

Times and Time Zones

All times are in EDT time to prevent confusion due to time zone crossing. See the CTL17 flight status page for this flight to view local times or setup timezone preferences in your user account.

Time Position Orientation Groundspeed Altitude Reporting Facility
EDT Latitude Longitude Course Direction KTS MPH feet Rate Location/Type
Tue 04:07:13 PM 42.6656 -83.3983 39° Northeast 118 136 1,500  Level Cleveland Center
Tue 04:08:38 PM 42.6956 -83.3658 39° Northeast 146 168 2,700 847 Climbing Cleveland Center
Tue 04:10:00 PM 42.7565 -83.3923 14° North  Level FlightAware Approximate
Tue 04:17:00 PM 43.0170 -83.4954 321° Northwest  Level FlightAware Approximate
Tue 04:18:00 PM 43.0498 -83.5316 321° Northwest  Level FlightAware Approximate
Tue 04:19:00 PM 43.0826 -83.5679 321° Northwest  Level FlightAware Approximate
Tue 04:20:00 PM 43.1154 -83.6042 321° Northwest  Level FlightAware Approximate
Tue 04:21:00 PM 43.1482 -83.6405 321° Northwest  Level FlightAware Approximate
Tue 04:22:00 PM 43.1809 -83.6769 321° Northwest  Level FlightAware Approximate
Tue 04:23:00 PM 43.2137 -83.7133 321° Northwest  Level FlightAware Approximate
Tue 04:24:00 PM 43.2453 -83.7516 318° Northwest  Level FlightAware Approximate
Tue 04:25:00 PM 43.2768 -83.7901 318° Northwest  Level FlightAware Approximate
Tue 04:26:00 PM 43.3083 -83.8286 318° Northwest  Level FlightAware Approximate
Tue 04:27:00 PM 43.3398 -83.8671 318° Northwest  Level FlightAware Approximate
Tue 04:28:00 PM 43.3717 -83.9050 324° Northwest  Level FlightAware Approximate
Tue 04:29:00 PM 43.4058 -83.9391 324° Northwest  Level FlightAware Approximate
Tue 04:30:00 PM 43.4399 -83.9732 324° Northwest  Level FlightAware Approximate
Tue 04:31:00 PM 43.4740 -84.0073 324° Northwest  Level FlightAware Approximate
Tue 04:32:00 PM 43.5057 -84.0448 305° West  Level FlightAware Approximate
Tue 04:33:00 PM 43.5167 -84.0667 305° West  Level FlightAware Approximate
Tue 04:34:00 PM 43.5329 -84.0796 305° West  Level Estimated
Tue 04:35:00 PM 43.5329 -84.0796 305° West  Level Estimated
Tue 04:36:00 PM 43.5329 -84.0796 305° West  Level Estimated

Login

Don't have an account? Register now (free) for customized features, flight alerts, and more!